createdAt,value
2019-05-14T00:02:23.136Z,99.90
2019-05-14T00:04:51.328Z,99.90
2019-05-14T00:07:19.355Z,99.90
2019-05-14T00:09:47.223Z,99.90
2019-05-14T00:12:15.070Z,99.90
2019-05-14T00:14:43.947Z,99.90
2019-05-14T00:17:12.185Z,99.90
2019-05-14T00:19:41.688Z,99.90
2019-05-14T00:22:11.506Z,99.90
2019-05-14T00:24:41.617Z,99.90
2019-05-14T00:27:11.240Z,99.90
2019-05-14T00:29:38.718Z,99.90
2019-05-14T00:32:06.570Z,99.90
2019-05-14T00:34:34.448Z,99.90
2019-05-14T00:37:02.286Z,99.90
2019-05-14T00:39:32.094Z,99.90
2019-05-14T00:42:01.645Z,99.90
2019-05-14T00:44:29.402Z,99.90
2019-05-14T00:46:57.284Z,99.90
2019-05-14T00:49:25.154Z,99.90
2019-05-14T00:51:53.084Z,99.90
2019-05-14T00:54:21.565Z,99.90
2019-05-14T00:57:08.602Z,99.90
2019-05-14T00:59:36.472Z,99.90
2019-05-14T01:02:04.401Z,99.90
2019-05-14T01:04:32.387Z,99.90
2019-05-14T01:07:01.683Z,99.90
2019-05-14T01:09:31.375Z,99.90
2019-05-14T01:12:01.624Z,99.90
2019-05-14T01:14:28.995Z,99.90
2019-05-14T01:16:56.942Z,99.90
2019-05-14T01:19:24.827Z,99.90
2019-05-14T01:21:52.709Z,99.90
2019-05-14T01:24:21.620Z,99.90
2019-05-14T01:26:52.085Z,99.90
2019-05-14T01:29:19.364Z,99.90
2019-05-14T01:31:47.367Z,99.90
2019-05-14T01:34:15.220Z,99.90
2019-05-14T01:36:43.192Z,99.90
2019-05-14T01:39:12.041Z,99.90
2019-05-14T01:41:42.255Z,99.90
2019-05-14T01:44:11.900Z,99.90
2019-05-14T01:46:41.821Z,99.90
2019-05-14T01:49:09.022Z,99.90
2019-05-14T01:51:36.936Z,99.90
2019-05-14T01:54:04.850Z,99.90
2019-05-14T01:56:32.716Z,99.90
2019-05-14T01:59:01.771Z,99.90
2019-05-14T02:01:31.478Z,99.90
2019-05-14T02:03:59.599Z,99.90
2019-05-14T02:06:27.573Z,99.90
2019-05-14T02:08:55.445Z,99.90
2019-05-14T02:11:23.342Z,99.90
2019-05-14T02:13:51.843Z,99.90
2019-05-14T02:16:21.870Z,99.90
2019-05-14T02:18:49.518Z,99.90
2019-05-14T02:21:17.531Z,99.90
2019-05-14T02:23:45.452Z,99.90
2019-05-14T02:26:13.336Z,99.90
2019-05-14T02:28:42.047Z,99.90
2019-05-14T02:31:10.222Z,99.90
2019-05-14T02:33:39.651Z,99.90
2019-05-14T02:36:10.405Z,99.90
2019-05-14T02:38:38.970Z,99.90
2019-05-14T02:41:09.929Z,99.90
2019-05-14T02:43:36.631Z,99.90
2019-05-14T02:46:11.858Z,99.90
2019-05-14T02:48:34.218Z,99.90
2019-05-14T02:51:02.170Z,99.90
2019-05-14T02:53:30.195Z,99.90
2019-05-14T02:55:59.314Z,99.90
2019-05-14T02:58:29.818Z,99.90
2019-05-14T03:01:00.278Z,99.90
2019-05-14T03:03:29.603Z,99.90
2019-05-14T03:05:59.609Z,99.90
2019-05-14T03:08:26.160Z,99.90
2019-05-14T03:10:55.029Z,99.90
2019-05-14T03:13:23.005Z,99.90
2019-05-14T03:15:51.124Z,99.90
2019-05-14T03:18:19.866Z,99.90
2019-05-14T03:20:50.124Z,99.90
2019-05-14T03:23:22.413Z,99.90
2019-05-14T03:25:49.326Z,99.90
2019-05-14T03:28:19.797Z,99.90
2019-05-14T03:30:51.466Z,99.90
2019-05-14T03:33:21.336Z,99.90
2019-05-14T03:35:51.990Z,99.90
2019-05-14T03:38:15.699Z,99.90
2019-05-14T03:40:43.635Z,99.90
2019-05-14T03:43:11.521Z,99.90
2019-05-14T03:45:39.516Z,99.90
2019-05-14T03:48:10.400Z,99.90
2019-05-14T03:50:38.911Z,99.90
2019-05-14T03:53:10.155Z,99.90
2019-05-14T03:55:39.990Z,99.90
2019-05-14T03:58:09.713Z,99.90
2019-05-14T04:00:38.872Z,99.90
2019-05-14T04:03:09.482Z,99.90
2019-05-14T04:05:35.449Z,99.90
2019-05-14T04:08:03.508Z,99.90
2019-05-14T04:10:31.415Z,99.90
2019-05-14T04:12:59.970Z,99.90
2019-05-14T04:15:29.892Z,99.90
2019-05-14T04:17:59.702Z,99.90
2019-05-14T04:20:29.741Z,99.90
2019-05-14T04:22:59.848Z,99.90
2019-05-14T04:25:29.497Z,99.90
2019-05-14T04:27:59.435Z,99.90
2019-05-14T04:30:28.856Z,99.90
2019-05-14T04:32:55.409Z,99.90
2019-05-14T04:35:23.269Z,99.90
2019-05-14T04:37:51.230Z,99.90
2019-05-14T04:40:19.210Z,99.90
2019-05-14T04:42:50.021Z,99.90
2019-05-14T04:45:19.697Z,99.90
2019-05-14T04:47:49.479Z,99.90
2019-05-14T04:50:16.102Z,99.90
2019-05-14T04:52:43.995Z,99.90
2019-05-14T04:55:12.055Z,99.90
2019-05-14T04:57:39.964Z,99.90
2019-05-14T05:00:11.648Z,99.90
2019-05-14T05:02:39.759Z,99.90
2019-05-14T05:05:09.031Z,99.90
2019-05-14T05:07:39.412Z,99.90
2019-05-14T05:10:09.758Z,99.90
2019-05-14T05:12:38.567Z,99.90
2019-05-14T05:15:05.679Z,99.90
2019-05-14T05:17:46.696Z,99.90
2019-05-14T05:20:03.397Z,99.90
2019-05-14T05:22:31.401Z,99.90
2019-05-14T05:24:59.413Z,99.90
2019-05-14T05:27:28.674Z,99.90
2019-05-14T05:29:59.018Z,99.90
2019-05-14T05:32:28.596Z,99.90
2019-05-14T05:34:58.387Z,99.90
2019-05-14T05:37:26.028Z,99.90
2019-05-14T05:39:54.034Z,99.90
2019-05-14T05:42:21.899Z,99.90
2019-05-14T05:44:49.851Z,99.90
2019-05-14T05:47:18.233Z,99.90
2019-05-14T05:49:48.587Z,99.90
2019-05-14T05:52:16.287Z,99.90
2019-05-14T05:54:45.986Z,99.90
2019-05-14T05:57:14.030Z,99.90
2019-05-14T05:59:42.015Z,99.90
2019-05-14T06:02:10.013Z,99.90
2019-05-14T06:04:39.338Z,99.90
2019-05-14T06:07:08.842Z,99.90
2019-05-14T06:09:38.127Z,99.90
2019-05-14T06:12:08.470Z,99.90
2019-05-14T06:14:38.041Z,99.90
2019-05-14T06:17:05.695Z,99.90
2019-05-14T06:19:33.567Z,99.90
2019-05-14T06:22:04.182Z,99.90
2019-05-14T06:24:31.109Z,99.90
2019-05-14T06:26:59.012Z,99.90
2019-05-14T06:29:29.037Z,99.90
2019-05-14T06:31:58.922Z,99.90
2019-05-14T06:34:28.902Z,99.90
2019-05-14T06:36:55.879Z,99.90
2019-05-14T06:39:23.904Z,99.90
2019-05-14T06:41:51.790Z,99.90
2019-05-14T06:44:19.743Z,99.90
2019-05-14T06:46:48.687Z,99.90
2019-05-14T06:49:18.363Z,99.90
2019-05-14T06:51:48.831Z,99.90
2019-05-14T06:54:19.450Z,99.90
2019-05-14T06:56:45.662Z,99.90
2019-05-14T06:59:13.590Z,99.90
2019-05-14T07:01:41.486Z,99.90
2019-05-14T07:04:09.389Z,99.90
2019-05-14T07:06:39.121Z,99.90
2019-05-14T07:09:08.214Z,99.90
2019-05-14T07:11:38.618Z,99.90
2019-05-14T07:14:10.723Z,99.90
2019-05-14T07:16:35.530Z,99.90
2019-05-14T07:19:03.422Z,99.90
2019-05-14T07:21:31.351Z,99.90
2019-05-14T07:23:59.515Z,99.90
2019-05-14T07:26:29.482Z,99.10
2019-05-14T07:28:59.019Z,99.60
2019-05-14T07:31:29.115Z,98.60
2019-05-14T07:33:58.209Z,97.70
2019-05-14T07:36:26.053Z,98.00
2019-05-14T07:38:56.537Z,96.40
2019-05-14T07:41:23.611Z,95.10
2019-05-14T07:43:51.488Z,92.50
2019-05-14T07:46:19.447Z,92.00
2019-05-14T07:49:03.828Z,85.30
2019-05-14T07:51:19.070Z,89.00
2019-05-14T07:53:48.517Z,90.00
2019-05-14T07:56:18.470Z,86.10
2019-05-14T07:58:46.013Z,78.00
2019-05-14T08:01:13.939Z,72.70
2019-05-14T08:03:41.900Z,70.00
2019-05-14T08:06:09.775Z,73.40
2019-05-14T08:08:38.546Z,69.90
2019-05-14T08:11:08.693Z,71.00
2019-05-14T08:13:38.801Z,67.20
2019-05-14T08:16:06.046Z,64.00
2019-05-14T08:18:34.025Z,66.40
2019-05-14T08:21:01.948Z,64.00
2019-05-14T08:23:29.841Z,61.80
2019-05-14T08:25:58.659Z,60.50
2019-05-14T08:28:28.843Z,59.30
2019-05-14T08:30:58.461Z,59.10
2019-05-14T08:33:26.217Z,59.20
2019-05-14T08:35:54.217Z,59.80
2019-05-14T08:38:22.193Z,57.90
2019-05-14T08:40:50.085Z,57.80
2019-05-14T08:43:18.474Z,59.70
2019-05-14T08:45:48.822Z,59.30
2019-05-14T08:48:18.777Z,60.10
2019-05-14T08:50:47.973Z,58.00
2019-05-14T08:53:18.398Z,62.10
2019-05-14T08:55:45.323Z,59.00
2019-05-14T08:58:14.126Z,57.70
2019-05-14T09:00:42.345Z,56.40
2019-05-14T09:03:10.318Z,55.50
2019-05-14T09:05:38.730Z,55.80
2019-05-14T09:08:08.799Z,55.60
2019-05-14T09:10:36.422Z,54.50
2019-05-14T09:13:04.371Z,54.00
2019-05-14T09:15:32.319Z,51.70
2019-05-14T09:18:03.325Z,53.00
2019-05-14T09:20:29.882Z,53.80
2019-05-14T09:22:59.510Z,54.80
2019-05-14T09:25:29.195Z,52.50
2019-05-14T09:27:58.622Z,54.60
2019-05-14T09:30:28.907Z,53.90
2019-05-14T09:32:56.301Z,52.60
2019-05-14T09:35:25.060Z,51.30
2019-05-14T09:37:52.953Z,49.40
2019-05-14T09:40:20.884Z,51.10
2019-05-14T09:42:49.938Z,50.40
2019-05-14T09:45:18.851Z,48.50
2019-05-14T09:47:49.979Z,46.00
2019-05-14T09:50:22.927Z,44.50
2019-05-14T09:52:49.180Z,44.00
2019-05-14T09:55:18.007Z,45.20
2019-05-14T09:57:45.668Z,44.10
2019-05-14T10:00:14.624Z,44.10
2019-05-14T10:02:42.682Z,44.20
2019-05-14T10:05:10.618Z,43.50
2019-05-14T10:07:39.324Z,46.10
2019-05-14T10:10:07.504Z,45.40
2019-05-14T10:12:42.595Z,43.80
2019-05-14T10:15:05.053Z,45.60
2019-05-14T10:17:32.921Z,42.80
2019-05-14T10:20:00.870Z,47.20
2019-05-14T10:22:28.760Z,45.40
2019-05-14T10:24:58.254Z,41.60
2019-05-14T10:27:28.383Z,40.90
2019-05-14T10:29:55.922Z,44.40
2019-05-14T10:32:23.783Z,43.00
2019-05-14T10:34:51.642Z,43.00
2019-05-14T10:37:19.602Z,43.20
2019-05-14T10:39:47.547Z,44.60
2019-05-14T10:42:15.501Z,42.80
2019-05-14T10:44:43.432Z,43.20
2019-05-14T10:47:11.441Z,43.20
2019-05-14T10:49:39.327Z,44.40
2019-05-14T10:52:08.281Z,44.70
2019-05-14T10:54:38.697Z,44.80
2019-05-14T10:57:06.143Z,44.40
2019-05-14T10:59:34.149Z,44.90
2019-05-14T11:02:02.039Z,45.50
2019-05-14T11:04:29.904Z,45.00
2019-05-14T11:06:57.783Z,44.20
2019-05-14T11:09:25.766Z,47.30
2019-05-14T11:11:53.760Z,44.70
2019-05-14T11:14:21.770Z,42.30
2019-05-14T11:16:49.734Z,42.70
2019-05-14T11:19:18.878Z,39.50
2019-05-14T11:21:48.442Z,41.50
2019-05-14T11:24:18.746Z,42.50
2019-05-14T11:26:48.554Z,42.60
2019-05-14T11:29:18.379Z,45.40
2019-05-14T11:31:48.262Z,40.60
2019-05-14T11:34:15.243Z,43.60
2019-05-14T11:36:44.225Z,42.90
2019-05-14T11:39:12.137Z,44.40
2019-05-14T11:41:40.046Z,43.60
2019-05-14T11:44:09.153Z,42.90
2019-05-14T11:46:47.576Z,41.00
2019-05-14T11:49:08.826Z,39.90
2019-05-14T11:51:58.422Z,42.60
2019-05-14T11:54:09.257Z,44.60
2019-05-14T11:56:41.516Z,43.50
2019-05-14T11:59:08.410Z,43.90
2019-05-14T12:01:35.356Z,44.00
2019-05-14T12:04:03.290Z,45.10
2019-05-14T12:06:31.273Z,40.60
2019-05-14T12:08:59.189Z,41.70
2019-05-14T12:11:29.083Z,41.90
2019-05-14T12:13:59.857Z,40.80
2019-05-14T12:16:29.159Z,40.50
2019-05-14T12:18:58.871Z,38.90
2019-05-14T12:21:28.676Z,39.70
2019-05-14T12:24:03.079Z,41.60
2019-05-14T12:26:25.371Z,42.10
2019-05-14T12:28:56.087Z,40.90
2019-05-14T12:31:22.949Z,43.70
2019-05-14T12:33:50.830Z,42.30
2019-05-14T12:36:19.568Z,42.10
2019-05-14T12:38:47.631Z,44.40
2019-05-14T12:41:19.044Z,45.90
2019-05-14T12:43:45.222Z,44.90
2019-05-14T12:46:13.123Z,44.40
2019-05-14T12:48:40.997Z,43.90
2019-05-14T12:51:09.233Z,43.40
2019-05-14T12:53:39.478Z,43.80
2019-05-14T12:56:08.571Z,44.30
2019-05-14T12:58:42.846Z,44.30
2019-05-14T13:01:08.530Z,44.40
2019-05-14T13:03:35.803Z,44.10
2019-05-14T13:06:03.694Z,45.20
2019-05-14T13:08:31.572Z,46.50
2019-05-14T13:10:59.465Z,44.50
2019-05-14T13:13:29.085Z,43.80
2019-05-14T13:15:57.138Z,43.40
2019-05-14T13:18:25.025Z,42.30
2019-05-14T13:20:53.047Z,42.00
2019-05-14T13:23:21.086Z,41.90
2019-05-14T13:25:49.158Z,45.10
2019-05-14T13:28:19.354Z,45.00
2019-05-14T13:30:48.869Z,43.50
2019-05-14T13:33:19.093Z,45.00
2019-05-14T13:35:48.201Z,43.80
2019-05-14T13:38:15.718Z,43.90
2019-05-14T13:40:43.689Z,45.20
2019-05-14T13:43:14.396Z,45.80
2019-05-14T13:45:41.294Z,45.00
2019-05-14T13:48:09.238Z,44.40
2019-05-14T13:50:40.096Z,42.50
2019-05-14T13:53:12.247Z,41.90
2019-05-14T13:55:44.319Z,42.20
2019-05-14T13:58:09.120Z,41.60
2019-05-14T14:00:35.707Z,40.30
2019-05-14T14:03:03.648Z,38.60
2019-05-14T14:05:31.623Z,39.80
2019-05-14T14:07:59.474Z,41.20
2019-05-14T14:10:31.501Z,39.80
2019-05-14T14:12:59.648Z,41.10
2019-05-14T14:15:28.740Z,40.40
2019-05-14T14:17:56.390Z,40.90
2019-05-14T14:20:24.385Z,41.90
2019-05-14T14:22:52.404Z,40.90
2019-05-14T14:25:20.268Z,40.00
2019-05-14T14:27:48.699Z,41.20
2019-05-14T14:30:19.245Z,42.30
2019-05-14T14:32:49.274Z,39.90
2019-05-14T14:35:16.372Z,40.20
2019-05-14T14:37:44.231Z,40.40
2019-05-14T14:40:12.120Z,41.50
2019-05-14T14:42:40.685Z,42.00
2019-05-14T14:45:08.845Z,42.20
2019-05-14T14:47:39.066Z,41.80
2019-05-14T14:50:08.410Z,42.60
2019-05-14T14:52:36.246Z,43.20
2019-05-14T14:55:04.135Z,42.70
2019-05-14T14:57:32.034Z,43.00
2019-05-14T15:00:00.074Z,42.50
2019-05-14T15:02:28.809Z,39.70
2019-05-14T15:04:59.609Z,40.40
2019-05-14T15:07:29.846Z,40.90
2019-05-14T15:09:59.458Z,41.50
2019-05-14T15:12:28.887Z,41.50
2019-05-14T15:14:59.083Z,44.30
2019-05-14T15:17:29.254Z,44.50
2019-05-14T15:19:59.440Z,43.40
2019-05-14T15:22:30.430Z,42.00
2019-05-14T15:24:58.628Z,40.10
2019-05-14T15:27:28.207Z,41.50
2019-05-14T15:29:55.868Z,42.80
2019-05-14T15:32:41.512Z,41.90
2019-05-14T15:35:11.694Z,41.80
2019-05-14T15:37:42.625Z,40.70
2019-05-14T15:40:09.448Z,39.90
2019-05-14T15:42:39.801Z,41.90
2019-05-14T15:45:09.195Z,44.20
2019-05-14T15:47:39.262Z,43.40
2019-05-14T15:50:09.833Z,42.70
2019-05-14T15:52:41.741Z,41.70
2019-05-14T15:55:10.674Z,43.00
2019-05-14T15:57:39.657Z,42.30
2019-05-14T16:00:11.150Z,42.90
2019-05-14T16:02:44.585Z,42.40
2019-05-14T16:05:14.435Z,41.40
2019-05-14T16:07:49.450Z,43.60
2019-05-14T16:10:21.394Z,41.00
2019-05-14T16:12:49.683Z,41.40
2019-05-14T16:15:18.811Z,41.40
2019-05-14T16:18:04.418Z,41.30
2019-05-14T16:20:18.975Z,43.40
2019-05-14T16:22:47.175Z,42.90
2019-05-14T16:25:15.237Z,43.50
2019-05-14T16:27:43.345Z,44.50
2019-05-14T16:30:11.203Z,44.70
2019-05-14T16:32:39.511Z,44.30
2019-05-14T16:35:08.874Z,44.80
2019-05-14T16:37:39.193Z,47.00
2019-05-14T16:40:06.737Z,47.60
2019-05-14T16:42:34.707Z,45.70
2019-05-14T16:45:02.561Z,46.80
2019-05-14T16:47:30.575Z,47.80
2019-05-14T16:49:59.177Z,45.90
2019-05-14T16:52:28.717Z,46.60
2019-05-14T16:55:15.010Z,46.70
2019-05-14T16:57:29.136Z,46.60
2019-05-14T16:59:58.479Z,46.20
2019-05-14T17:02:25.737Z,44.20
2019-05-14T17:04:53.676Z,46.40
2019-05-14T17:07:21.562Z,46.80
2019-05-14T17:09:49.506Z,43.20
2019-05-14T17:12:21.848Z,44.40
2019-05-14T17:14:47.138Z,43.20
2019-05-14T17:17:15.100Z,42.30
2019-05-14T17:19:43.096Z,44.70
2019-05-14T17:22:23.978Z,43.50
2019-05-14T17:24:40.816Z,43.20
2019-05-14T17:27:08.904Z,44.70
2019-05-14T17:29:38.866Z,42.90
2019-05-14T17:32:06.592Z,43.40
2019-05-14T17:34:34.554Z,44.50
2019-05-14T17:37:02.434Z,44.90
2019-05-14T17:39:30.370Z,45.30
2019-05-14T17:41:58.884Z,48.80
2019-05-14T17:44:26.981Z,45.70
2019-05-14T17:46:54.973Z,46.00
2019-05-14T17:49:23.014Z,45.90
2019-05-14T17:51:50.946Z,47.00
2019-05-14T17:54:18.887Z,47.00
2019-05-14T17:56:48.577Z,47.50
2019-05-14T17:59:19.122Z,49.30
2019-05-14T18:01:46.003Z,48.10
2019-05-14T18:04:13.964Z,47.20
2019-05-14T18:06:41.825Z,46.00
2019-05-14T18:09:09.916Z,46.50
2019-05-14T18:11:39.936Z,46.10
2019-05-14T18:14:11.621Z,47.90
2019-05-14T18:16:38.034Z,47.10
2019-05-14T18:19:06.098Z,47.10
2019-05-14T18:21:34.075Z,47.30
2019-05-14T18:24:02.023Z,47.20
2019-05-14T18:26:29.980Z,48.80
2019-05-14T18:28:58.142Z,48.50
2019-05-14T18:31:26.437Z,48.40
2019-05-14T18:33:54.436Z,48.90
2019-05-14T18:36:22.382Z,48.40
2019-05-14T18:38:50.412Z,49.00
2019-05-14T18:41:19.049Z,50.60
2019-05-14T18:43:49.439Z,51.80
2019-05-14T18:46:19.164Z,53.20
2019-05-14T18:48:48.676Z,53.90
2019-05-14T18:51:19.353Z,55.30
2019-05-14T18:53:46.369Z,57.60
2019-05-14T18:56:20.238Z,58.10
2019-05-14T18:58:48.603Z,58.70
2019-05-14T19:01:19.589Z,60.10
2019-05-14T19:03:46.343Z,61.50
2019-05-14T19:06:14.485Z,64.30
2019-05-14T19:08:44.105Z,65.20
2019-05-14T19:11:12.544Z,67.00
2019-05-14T19:13:40.617Z,69.40
2019-05-14T19:16:09.445Z,71.20
2019-05-14T19:18:38.536Z,71.70
2019-05-14T19:21:08.829Z,74.20
2019-05-14T19:23:38.422Z,74.80
2019-05-14T19:26:06.307Z,75.70
2019-05-14T19:28:34.448Z,76.20
2019-05-14T19:31:05.343Z,78.50
2019-05-14T19:33:34.838Z,81.40
2019-05-14T19:36:02.839Z,81.80
2019-05-14T19:38:30.796Z,83.70
2019-05-14T19:40:58.930Z,85.30
2019-05-14T19:43:29.106Z,86.40
2019-05-14T19:45:58.915Z,87.60
2019-05-14T19:48:26.300Z,88.60
2019-05-14T19:50:54.394Z,89.80
2019-05-14T19:53:22.407Z,90.30
2019-05-14T19:55:50.454Z,90.70
2019-05-14T19:58:20.000Z,91.10
2019-05-14T20:00:48.869Z,91.70
2019-05-14T20:03:18.702Z,92.40
2019-05-14T20:05:46.780Z,93.30
2019-05-14T20:08:14.634Z,93.90
2019-05-14T20:10:42.598Z,94.40
2019-05-14T20:13:10.439Z,95.00
2019-05-14T20:15:38.894Z,95.20
2019-05-14T20:18:08.971Z,95.90
2019-05-14T20:20:38.305Z,96.30
2019-05-14T20:23:06.300Z,96.80
2019-05-14T20:25:34.167Z,97.20
2019-05-14T20:28:02.146Z,97.60
2019-05-14T20:30:30.033Z,98.20
2019-05-14T20:32:59.279Z,98.50
2019-05-14T20:35:34.341Z,98.60
2019-05-14T20:37:58.579Z,99.00
2019-05-14T20:40:28.471Z,99.60
2019-05-14T20:42:58.623Z,99.90
2019-05-14T20:45:28.661Z,99.90
2019-05-14T20:47:55.440Z,99.90
2019-05-14T20:50:23.319Z,99.90
2019-05-14T20:52:51.291Z,99.90
2019-05-14T20:55:19.231Z,99.90
2019-05-14T20:57:48.865Z,99.90
2019-05-14T21:00:18.246Z,99.90
2019-05-14T21:02:46.213Z,99.90
2019-05-14T21:05:14.154Z,99.90
2019-05-14T21:07:42.218Z,99.90
2019-05-14T21:10:10.260Z,99.90
2019-05-14T21:12:39.379Z,99.90
2019-05-14T21:15:08.973Z,99.90
2019-05-14T21:17:39.069Z,99.90
2019-05-14T21:20:09.068Z,99.90
2019-05-14T21:22:39.698Z,99.90
2019-05-14T21:25:11.207Z,99.90
2019-05-14T21:27:44.536Z,99.90
2019-05-14T21:30:05.714Z,99.90
2019-05-14T21:32:33.578Z,99.90
2019-05-14T21:35:01.632Z,99.90
2019-05-14T21:37:29.592Z,99.90
2019-05-14T21:39:58.264Z,99.90
2019-05-14T21:42:28.388Z,99.90
2019-05-14T21:44:58.253Z,99.90
2019-05-14T21:47:25.543Z,99.90
2019-05-14T21:49:53.526Z,99.90
2019-05-14T21:52:21.470Z,99.90
2019-05-14T21:54:49.387Z,99.90
2019-05-14T21:57:19.001Z,99.90
2019-05-14T21:59:48.004Z,99.90
2019-05-14T22:02:24.435Z,99.90
2019-05-14T22:04:46.080Z,99.90
2019-05-14T22:07:14.043Z,99.90
2019-05-14T22:09:41.935Z,99.90
2019-05-14T22:12:09.805Z,99.90
2019-05-14T22:14:38.067Z,99.90
2019-05-14T22:17:07.988Z,99.90
2019-05-14T22:19:38.263Z,99.90
2019-05-14T22:22:07.871Z,99.90
2019-05-14T22:24:35.177Z,99.90
2019-05-14T22:27:03.062Z,99.90
2019-05-14T22:29:31.014Z,99.90
2019-05-14T22:31:58.898Z,99.90
2019-05-14T22:34:28.050Z,99.90
2019-05-14T22:36:58.134Z,99.90
2019-05-14T22:39:25.783Z,99.90
2019-05-14T22:41:53.662Z,99.90
2019-05-14T22:44:21.539Z,99.90
2019-05-14T22:46:49.603Z,99.90
2019-05-14T22:49:19.136Z,99.90
2019-05-14T22:51:49.293Z,99.90
2019-05-14T22:54:17.743Z,99.90
2019-05-14T22:56:48.136Z,99.90
2019-05-14T22:59:20.399Z,99.90
2019-05-14T23:01:47.976Z,99.90
2019-05-14T23:04:15.453Z,99.90
2019-05-14T23:06:43.336Z,99.90
2019-05-14T23:09:11.264Z,99.90
2019-05-14T23:11:39.161Z,99.90
2019-05-14T23:14:07.135Z,99.90
2019-05-14T23:16:39.282Z,99.90
2019-05-14T23:19:04.837Z,99.90
2019-05-14T23:21:32.775Z,99.90
2019-05-14T23:24:01.041Z,99.90
2019-05-14T23:26:28.909Z,99.90
2019-05-14T23:28:58.718Z,99.90
2019-05-14T23:31:28.848Z,99.90
2019-05-14T23:33:58.456Z,99.90
2019-05-14T23:36:26.091Z,99.90
2019-05-14T23:38:53.969Z,99.90
2019-05-14T23:41:21.926Z,99.90
2019-05-14T23:43:49.924Z,99.90
2019-05-14T23:46:18.318Z,99.90
2019-05-14T23:48:48.500Z,99.90
2019-05-14T23:51:18.155Z,99.90
2019-05-14T23:53:48.172Z,99.90
2019-05-14T23:56:15.585Z,99.90
2019-05-14T23:58:54.820Z,99.90
